Terminal Aerodrome Forecast
Issued by NWS Glasgow, MT

Home | Current Version | Previous Version | Text Only | Print | Product List | Glossary On
Versions: 1 2 3 4 5 6 7 8 9 10 11 12 13 14 15
000
FTUS45 KGGW 301700
TAFGGW
TAF
KGGW 301732Z 3018/3118 12020KT P6SM OVC080
     FM302200 12018G26KT P6SM VCTS BKN080CB
     FM310300 12017KT P6SM -SHRA BKN060
     FM311000 11014KT P6SM BKN100=

USA.gov is the U.S. government's official web portal to all federal, state and local government web resources and services.